createdAt,value
2019-05-02T00:07:53.803Z,15.60
2019-05-02T00:18:01.479Z,15.50
2019-05-02T00:28:07.767Z,15.40
2019-05-02T00:38:12.081Z,15.30
2019-05-02T00:48:24.392Z,15.00
2019-05-02T00:58:31.954Z,14.80
2019-05-02T01:08:37.953Z,14.70
2019-05-02T01:18:44.258Z,14.70
2019-05-02T01:29:10.283Z,14.70
2019-05-02T01:39:15.636Z,14.40
2019-05-02T01:49:21.779Z,14.20
2019-05-02T01:59:29.045Z,14.00
2019-05-02T02:09:38.675Z,14.00
2019-05-02T02:19:47.007Z,13.80
2019-05-02T02:29:52.514Z,13.70
2019-05-02T02:39:57.819Z,13.60
2019-05-02T02:50:05.333Z,13.50
2019-05-02T03:00:11.075Z,13.40
2019-05-02T03:10:16.769Z,13.30
2019-05-02T03:20:22.113Z,13.20
2019-05-02T03:30:36.395Z,13.10
2019-05-02T03:40:38.893Z,12.80
2019-05-02T03:50:41.930Z,12.50
2019-05-02T04:00:47.430Z,12.30
2019-05-02T04:11:24.916Z,12.30
2019-05-02T04:21:30.317Z,12.10
2019-05-02T04:31:35.694Z,11.90
2019-05-02T04:41:42.488Z,11.90
2019-05-02T04:51:59.817Z,12.10
2019-05-02T05:01:58.547Z,12.20
2019-05-02T05:12:02.831Z,12.40
2019-05-02T05:22:11.703Z,12.50
2019-05-02T05:32:15.503Z,12.60
2019-05-02T05:42:23.304Z,12.70
2019-05-02T05:52:28.503Z,12.90
2019-05-02T06:02:50.067Z,13.00
2019-05-02T06:12:40.754Z,13.10
2019-05-02T06:22:46.011Z,13.30
2019-05-02T06:32:54.943Z,13.50
2019-05-02T06:42:58.495Z,13.70
2019-05-02T06:53:04.267Z,13.80
2019-05-02T07:03:11.659Z,14.00
2019-05-02T07:13:17.026Z,14.30
2019-05-02T07:23:23.431Z,14.60
2019-05-02T07:33:32.366Z,14.90
2019-05-02T07:43:35.694Z,15.10
2019-05-02T07:53:44.534Z,15.30
2019-05-02T08:03:48.227Z,15.30
2019-05-02T08:13:55.626Z,15.50
2019-05-02T08:24:02.162Z,15.60
2019-05-02T08:34:14.633Z,15.70
2019-05-02T08:44:16.738Z,15.80
2019-05-02T08:54:22.351Z,15.80
2019-05-02T09:04:29.178Z,16.20
2019-05-02T09:14:34.747Z,16.30
2019-05-02T09:24:43.023Z,16.30
2019-05-02T09:34:47.099Z,16.50
2019-05-02T09:44:56.708Z,16.80
2019-05-02T09:54:59.752Z,17.10
2019-05-02T10:05:05.282Z,17.40
2019-05-02T10:15:13.053Z,17.60
2019-05-02T10:25:18.525Z,18.00
2019-05-02T10:35:27.586Z,18.60
2019-05-02T10:45:34.353Z,19.80
2019-05-02T10:55:39.686Z,21.10
2019-05-02T11:05:48.219Z,22.40
2019-05-02T11:16:21.563Z,23.30
2019-05-02T11:26:27.510Z,23.90
2019-05-02T11:36:33.022Z,24.80
2019-05-02T11:46:43.024Z,24.90
2019-05-02T11:56:48.877Z,25.80
2019-05-02T12:07:01.038Z,25.80
2019-05-02T12:17:02.494Z,26.60
2019-05-02T12:27:07.580Z,26.50
2019-05-02T12:37:13.298Z,26.80
2019-05-02T12:47:18.712Z,26.90
2019-05-02T12:57:24.396Z,27.30
2019-05-02T13:07:31.650Z,26.40
2019-05-02T13:17:43.905Z,26.00
2019-05-02T13:27:47.993Z,25.60
2019-05-02T13:37:53.551Z,25.90
2019-05-02T13:47:58.882Z,25.70
2019-05-02T13:58:04.306Z,25.80
2019-05-02T14:08:35.501Z,25.80
2019-05-02T14:18:38.540Z,25.20
2019-05-02T14:28:44.865Z,24.60
2019-05-02T14:38:50.147Z,24.30
2019-05-02T14:48:55.584Z,24.30
2019-05-02T14:59:02.669Z,24.50
2019-05-02T15:09:09.441Z,25.00
2019-05-02T15:19:14.714Z,26.60
2019-05-02T15:29:25.102Z,30.30
2019-05-02T15:49:45.872Z,32.50
2019-05-02T15:59:51.647Z,30.90
2019-05-02T16:10:01.094Z,28.50
2019-05-02T16:20:13.452Z,26.00
2019-05-02T16:30:22.390Z,24.90
2019-05-02T16:40:31.886Z,24.10
2019-05-02T16:50:36.913Z,23.60
2019-05-02T17:00:45.431Z,23.20
2019-05-02T17:11:05.271Z,22.90
2019-05-02T17:21:12.558Z,22.40
2019-05-02T17:31:20.469Z,22.10
2019-05-02T17:41:24.700Z,21.70
2019-05-02T17:51:38.355Z,21.50
2019-05-02T18:01:43.811Z,21.30
2019-05-02T18:11:49.083Z,20.90
2019-05-02T18:21:58.210Z,20.60
2019-05-02T18:32:02.364Z,20.20
2019-05-02T18:42:08.124Z,19.70
2019-05-02T18:52:13.426Z,19.20
2019-05-02T19:02:19.087Z,18.80
2019-05-02T19:12:26.138Z,18.30
2019-05-02T19:22:32.177Z,18.10
2019-05-02T19:32:37.637Z,17.80
2019-05-02T19:42:45.031Z,17.30
2019-05-02T19:53:00.855Z,17.20
2019-05-02T20:02:57.007Z,17.00
2019-05-02T20:13:03.167Z,16.70
2019-05-02T20:23:15.626Z,16.30
2019-05-02T20:33:16.286Z,16.10
2019-05-02T20:43:22.695Z,16.00
2019-05-02T20:53:31.359Z,16.10
2019-05-02T21:03:35.171Z,16.10
2019-05-02T21:13:41.863Z,16.10
2019-05-02T21:23:47.837Z,16.10
2019-05-02T21:33:53.272Z,16.20
2019-05-02T21:43:58.975Z,16.10
2019-05-02T21:54:12.455Z,15.80
2019-05-02T22:04:18.040Z,15.60
2019-05-02T22:14:23.385Z,15.50
2019-05-02T22:24:28.904Z,15.40
2019-05-02T22:34:34.787Z,15.40
2019-05-02T22:44:41.715Z,15.40
2019-05-02T22:54:47.351Z,15.30
2019-05-02T23:04:53.143Z,15.30
2019-05-02T23:14:58.942Z,15.20
2019-05-02T23:25:22.876Z,15.20
2019-05-02T23:35:28.431Z,15.10
2019-05-02T23:45:34.306Z,15.00
2019-05-02T23:55:39.803Z,14.90
